createdAt,value
2019-05-06T00:01:58.094Z,99.90
2019-05-06T00:04:30.574Z,99.90
2019-05-06T00:07:04.288Z,99.90
2019-05-06T00:09:36.882Z,99.90
2019-05-06T00:12:09.315Z,99.90
2019-05-06T00:14:43.657Z,99.90
2019-05-06T00:17:16.639Z,99.90
2019-05-06T00:19:49.094Z,99.90
2019-05-06T00:22:23.789Z,99.90
2019-05-06T00:24:57.246Z,99.90
2019-05-06T00:27:47.221Z,99.90
2019-05-06T00:30:19.555Z,99.90
2019-05-06T00:32:53.828Z,99.90
2019-05-06T00:35:26.174Z,99.90
2019-05-06T00:37:58.878Z,99.90
2019-05-06T00:40:35.902Z,99.90
2019-05-06T00:43:10.371Z,99.90
2019-05-06T00:45:44.332Z,99.90
2019-05-06T00:48:17.187Z,99.90
2019-05-06T00:50:50.482Z,99.90
2019-05-06T00:53:23.897Z,99.90
2019-05-06T00:55:57.753Z,99.90
2019-05-06T00:58:30.308Z,99.80
2019-05-06T01:01:04.557Z,99.60
2019-05-06T01:03:36.658Z,99.60
2019-05-06T01:06:09.216Z,99.60
2019-05-06T01:08:40.996Z,99.60
2019-05-06T01:11:14.467Z,99.60
2019-05-06T01:13:51.475Z,99.70
2019-05-06T01:16:24.951Z,99.90
2019-05-06T01:18:58.612Z,99.70
2019-05-06T01:21:34.033Z,99.70
2019-05-06T01:24:06.423Z,99.90
2019-05-06T01:26:39.070Z,99.40
2019-05-06T01:29:10.764Z,99.30
2019-05-06T01:31:46.090Z,99.70
2019-05-06T01:34:18.795Z,99.30
2019-05-06T01:36:49.533Z,99.20
2019-05-06T01:39:34.787Z,99.30
2019-05-06T01:42:21.224Z,99.40
2019-05-06T01:44:53.978Z,99.30
2019-05-06T01:47:26.753Z,99.50
2019-05-06T01:49:59.794Z,99.30
2019-05-06T01:52:34.918Z,99.40
2019-05-06T01:55:14.046Z,99.10
2019-05-06T01:57:45.861Z,99.10
2019-05-06T02:00:18.584Z,98.90
2019-05-06T02:02:51.491Z,99.00
2019-05-06T02:05:24.406Z,99.20
2019-05-06T02:07:57.472Z,98.90
2019-05-06T02:10:30.268Z,99.20
2019-05-06T02:13:03.937Z,99.20
2019-05-06T02:15:40.357Z,99.40
2019-05-06T02:18:16.641Z,99.00
2019-05-06T02:20:49.987Z,99.00
2019-05-06T02:23:24.208Z,99.40
2019-05-06T02:25:56.751Z,99.10
2019-05-06T02:28:30.487Z,99.20
2019-05-06T02:31:20.793Z,99.20
2019-05-06T02:34:06.978Z,99.10
2019-05-06T02:36:55.098Z,99.20
2019-05-06T02:39:28.896Z,99.00
2019-05-06T02:42:04.277Z,99.00
2019-05-06T02:44:36.801Z,99.10
2019-05-06T02:47:10.028Z,99.40
2019-05-06T02:49:53.660Z,99.20
2019-05-06T02:52:26.803Z,99.60
2019-05-06T02:54:58.335Z,99.70
2019-05-06T02:57:33.510Z,99.50
2019-05-06T03:00:13.206Z,98.90
2019-05-06T03:02:48.128Z,98.70
2019-05-06T03:05:23.493Z,99.20
2019-05-06T03:07:57.539Z,99.30
2019-05-06T03:10:32.880Z,98.60
2019-05-06T03:13:04.933Z,98.40
2019-05-06T03:15:37.721Z,98.50
2019-05-06T03:18:14.715Z,98.40
2019-05-06T03:20:48.173Z,98.80
2019-05-06T03:23:23.714Z,98.30
2019-05-06T03:25:56.125Z,98.70
2019-05-06T03:28:28.858Z,98.10
2019-05-06T03:31:06.596Z,98.20
2019-05-06T03:33:57.035Z,98.00
2019-05-06T03:36:22.667Z,98.10
2019-05-06T03:38:47.512Z,98.10
2019-05-06T03:41:26.066Z,98.60
2019-05-06T03:43:57.157Z,98.70
2019-05-06T03:46:34.268Z,98.80
2019-05-06T03:49:08.438Z,98.60
2019-05-06T03:51:42.927Z,98.20
2019-05-06T03:54:15.498Z,98.00
2019-05-06T03:56:53.553Z,98.50
2019-05-06T03:59:27.699Z,98.10
2019-05-06T04:02:00.140Z,98.80
2019-05-06T04:04:33.165Z,98.70
2019-05-06T04:07:09.000Z,99.00
2019-05-06T04:09:44.221Z,98.30
2019-05-06T04:12:19.604Z,98.30
2019-05-06T04:14:53.947Z,98.30
2019-05-06T04:17:43.877Z,98.10
2019-05-06T04:20:19.201Z,98.10
2019-05-06T04:22:53.676Z,98.90
2019-05-06T04:25:34.002Z,98.80
2019-05-06T04:28:17.731Z,98.40
2019-05-06T04:30:57.490Z,98.00
2019-05-06T04:33:50.088Z,98.10
2019-05-06T04:36:23.865Z,98.10
2019-05-06T04:38:54.210Z,98.10
2019-05-06T04:41:26.925Z,98.70
2019-05-06T04:44:02.692Z,99.00
2019-05-06T04:46:35.086Z,98.80
2019-05-06T04:49:10.692Z,99.20
2019-05-06T09:51:45.582Z,94.00
2019-05-06T09:54:23.478Z,94.50
2019-05-06T09:56:58.140Z,95.90
2019-05-06T09:59:32.160Z,95.00
2019-05-06T10:02:05.657Z,96.10
2019-05-06T10:04:39.428Z,96.30
2019-05-06T10:07:14.034Z,94.70
2019-05-06T10:09:49.104Z,96.50
2019-05-06T10:12:22.023Z,96.60
2019-05-06T10:14:55.084Z,94.80
2019-05-06T10:17:26.372Z,94.50
2019-05-06T10:19:59.163Z,96.90
2019-05-06T10:22:32.580Z,96.90
2019-05-06T10:25:05.879Z,94.70
2019-05-06T10:27:42.104Z,94.60
2019-05-06T10:30:17.061Z,95.70
2019-05-06T10:32:55.704Z,96.00
2019-05-06T10:35:29.729Z,96.80
2019-05-06T10:38:23.573Z,95.00
2019-05-06T10:41:07.595Z,94.90
2019-05-06T10:43:43.574Z,95.20
2019-05-06T10:46:16.607Z,95.00
2019-05-06T10:48:48.862Z,95.20
2019-05-06T10:51:37.963Z,95.50
2019-05-06T10:54:12.257Z,95.10
2019-05-06T10:56:57.430Z,94.80
2019-05-06T10:59:32.450Z,94.90
2019-05-06T11:02:12.961Z,96.20
2019-05-06T11:04:45.583Z,95.70
2019-05-06T11:07:29.255Z,95.00
2019-05-06T11:09:53.519Z,95.20
2019-05-06T11:12:26.314Z,95.10
2019-05-06T11:14:58.908Z,96.30
2019-05-06T11:17:32.617Z,95.20
2019-05-06T11:20:06.839Z,95.10
2019-05-06T11:22:39.357Z,95.00
2019-05-06T11:25:13.172Z,95.20
2019-05-06T11:27:45.845Z,94.90
2019-05-06T11:30:24.791Z,94.90
2019-05-06T11:33:07.330Z,95.00
2019-05-06T11:35:53.228Z,97.10
2019-05-06T11:38:26.654Z,95.20
2019-05-06T11:40:59.053Z,95.20
2019-05-06T11:43:32.470Z,95.60
2019-05-06T11:46:06.584Z,97.80
2019-05-06T11:48:39.011Z,97.00
2019-05-06T11:51:13.207Z,97.80
2019-05-06T11:53:45.607Z,95.80
2019-05-06T11:56:18.998Z,95.70
2019-05-06T11:58:53.267Z,95.60
2019-05-06T12:01:36.854Z,96.10
2019-05-06T12:04:09.231Z,99.10
2019-05-06T12:06:44.598Z,97.00
2019-05-06T12:09:17.421Z,98.20
2019-05-06T12:11:52.636Z,95.80
2019-05-06T12:14:23.565Z,97.90
2019-05-06T12:16:56.476Z,95.70
2019-05-06T12:19:29.526Z,95.50
2019-05-06T12:22:03.563Z,95.80
2019-05-06T12:24:36.296Z,94.50
2019-05-06T12:27:12.670Z,93.90
2019-05-06T12:29:44.889Z,93.50
2019-05-06T12:32:32.992Z,93.10
2019-05-06T12:35:05.323Z,98.50
2019-05-06T12:37:39.319Z,94.00
2019-05-06T12:40:12.486Z,95.00
2019-05-06T12:42:46.699Z,93.40
2019-05-06T12:45:33.079Z,93.00
2019-05-06T12:48:07.347Z,95.30
2019-05-06T12:50:39.913Z,91.60
2019-05-06T12:53:13.167Z,92.50
2019-05-06T12:55:45.208Z,94.80
2019-05-06T12:58:21.053Z,98.80
2019-05-06T13:00:54.261Z,96.00
2019-05-06T13:03:25.877Z,93.60
2019-05-06T13:05:58.233Z,93.30
2019-05-06T13:08:51.722Z,98.50
2019-05-06T13:11:05.171Z,95.40
2019-05-06T13:13:36.380Z,95.00
2019-05-06T13:16:09.164Z,93.90
2019-05-06T13:18:46.883Z,93.80
2019-05-06T13:21:14.471Z,93.90
2019-05-06T13:23:49.727Z,94.10
2019-05-06T13:26:22.559Z,94.80
2019-05-06T13:29:05.881Z,93.70
2019-05-06T13:31:38.269Z,93.70
2019-05-06T13:34:13.404Z,93.70
2019-05-06T13:36:53.586Z,95.50
2019-05-06T13:39:32.746Z,97.20
2019-05-06T13:42:06.704Z,94.00
2019-05-06T13:44:39.249Z,98.10
2019-05-06T13:47:14.227Z,99.30
2019-05-06T13:49:48.325Z,94.80
2019-05-06T13:52:24.822Z,94.50
2019-05-06T13:55:02.355Z,97.10
2019-05-06T13:57:39.072Z,96.90
2019-05-06T14:00:14.198Z,94.50
2019-05-06T14:02:53.837Z,94.70
2019-05-06T14:05:27.490Z,96.10
2019-05-06T14:08:04.179Z,94.50
2019-05-06T14:10:34.606Z,94.40
2019-05-06T14:13:07.457Z,98.00
2019-05-06T14:15:41.950Z,95.00
2019-05-06T14:18:14.219Z,95.10
2019-05-06T14:20:45.678Z,94.70
2019-05-06T14:23:18.324Z,96.00
2019-05-06T14:25:55.085Z,94.80
2019-05-06T14:28:34.966Z,94.50
2019-05-06T14:31:08.583Z,95.50
2019-05-06T14:33:42.786Z,95.90
2019-05-06T14:36:14.934Z,96.20
2019-05-06T14:38:47.731Z,96.00
2019-05-06T14:41:26.533Z,94.50
2019-05-06T14:43:55.859Z,94.50
2019-05-06T14:46:28.225Z,94.40
2019-05-06T14:49:04.169Z,94.60
2019-05-06T14:51:34.167Z,94.70
2019-05-06T14:54:07.934Z,94.40
2019-05-06T14:56:42.796Z,94.80
2019-05-06T14:59:15.579Z,94.90
2019-05-06T15:01:48.006Z,94.70
2019-05-06T15:04:23.028Z,94.80
2019-05-06T15:06:55.503Z,97.80
2019-05-06T15:09:28.227Z,99.40
2019-05-06T15:12:05.583Z,96.20
2019-05-06T15:14:42.240Z,95.80
2019-05-06T15:17:14.653Z,98.00
2019-05-06T15:19:52.544Z,96.10
2019-05-06T15:22:25.524Z,95.70
2019-05-06T15:25:02.367Z,99.20
2019-05-06T15:27:36.204Z,95.80
2019-05-06T15:30:12.453Z,99.50
2019-05-06T15:32:45.006Z,95.90
2019-05-06T15:35:22.289Z,97.40
2019-05-06T15:37:56.478Z,99.90
2019-05-06T15:40:35.875Z,97.90
2019-05-06T15:43:04.530Z,99.30
2019-05-06T15:45:40.216Z,99.90
2019-05-06T15:48:15.760Z,99.90
2019-05-06T15:50:49.030Z,97.10
2019-05-06T15:53:22.474Z,97.50
2019-05-06T15:55:57.175Z,99.90
2019-05-06T15:58:32.980Z,99.90
2019-05-06T16:01:05.599Z,99.00
2019-05-06T16:03:37.936Z,99.90
2019-05-06T16:06:12.354Z,99.80
2019-05-06T16:08:45.060Z,99.80
2019-05-06T16:11:17.757Z,99.50
2019-05-06T16:13:53.284Z,99.90
2019-05-06T16:16:28.211Z,99.50
2019-05-06T16:20:28.832Z,99.90
2019-05-06T16:23:15.089Z,99.90
2019-05-06T16:25:53.222Z,99.90
2019-05-06T16:28:25.576Z,99.20
2019-05-06T16:30:59.327Z,98.80
2019-05-06T16:33:32.939Z,96.90
2019-05-06T16:36:06.810Z,99.70
2019-05-06T16:38:52.509Z,97.20
2019-05-06T16:41:31.907Z,97.30
2019-05-06T16:44:13.874Z,97.30
2019-05-06T16:47:04.550Z,99.60
2019-05-06T16:49:42.210Z,98.80
2019-05-06T16:52:19.254Z,97.40
2019-05-06T16:54:52.806Z,96.90
2019-05-06T16:57:27.236Z,98.10
2019-05-06T17:00:00.212Z,97.40
2019-05-06T17:02:35.490Z,99.60
2019-05-06T17:05:22.431Z,97.20
2019-05-06T17:07:59.211Z,99.60
2019-05-06T17:10:36.205Z,97.80
2019-05-06T17:13:09.591Z,98.20
2019-05-06T17:15:43.478Z,97.50
2019-05-06T17:18:15.847Z,97.70
2019-05-06T17:20:49.005Z,99.90
2019-05-06T17:23:22.902Z,99.90
2019-05-06T17:26:01.760Z,99.90
2019-05-06T17:28:52.074Z,99.90
2019-05-06T17:31:32.499Z,99.90
2019-05-06T17:34:06.443Z,99.90
2019-05-06T17:36:42.099Z,99.90
2019-05-06T17:39:15.969Z,99.90
2019-05-06T17:41:49.355Z,99.90
2019-05-06T17:44:23.482Z,99.90
2019-05-06T17:46:58.110Z,99.90
2019-05-06T17:49:32.259Z,99.90
2019-05-06T17:52:07.190Z,99.90
2019-05-06T17:54:40.354Z,99.90
2019-05-06T17:57:12.724Z,99.90
2019-05-06T17:59:45.672Z,99.90
2019-05-06T18:02:19.698Z,99.30
2019-05-06T18:04:53.322Z,99.50
2019-05-06T18:07:26.048Z,99.90
2019-05-06T18:09:58.718Z,99.90
2019-05-06T18:12:32.731Z,99.90
2019-05-06T18:15:04.383Z,98.90
2019-05-06T18:17:35.940Z,99.90
2019-05-06T18:20:08.482Z,99.90
2019-05-06T18:22:43.368Z,99.90
2019-05-06T18:25:16.192Z,99.90
2019-05-06T18:27:49.202Z,99.90
2019-05-06T18:30:28.268Z,99.90
2019-05-06T18:32:55.382Z,99.90
2019-05-06T18:35:28.141Z,99.90
2019-05-06T18:37:59.826Z,99.90
2019-05-06T18:40:33.140Z,99.90
2019-05-06T18:43:06.297Z,99.90
2019-05-06T18:45:38.912Z,99.90
2019-05-06T18:48:10.638Z,99.90
2019-05-06T18:50:43.054Z,99.90
2019-05-06T18:53:16.085Z,99.90
2019-05-06T18:55:48.915Z,99.90
2019-05-06T18:58:23.791Z,99.90
2019-05-06T19:00:56.477Z,99.90
2019-05-06T19:03:31.985Z,99.90
2019-05-06T19:06:05.948Z,99.90
2019-05-06T19:08:43.034Z,99.90
2019-05-06T19:11:17.614Z,99.90
2019-05-06T19:13:52.507Z,99.30
2019-05-06T19:16:24.169Z,99.90
2019-05-06T19:18:57.049Z,99.90
2019-05-06T19:21:31.848Z,99.90
2019-05-06T19:24:03.612Z,99.90
2019-05-06T19:26:36.109Z,99.90
2019-05-06T19:29:08.514Z,99.90
2019-05-06T19:31:44.777Z,99.90
2019-05-06T19:34:15.636Z,99.90
2019-05-06T19:36:48.009Z,99.90
2019-05-06T19:39:22.960Z,99.10
2019-05-06T19:41:55.015Z,99.10
2019-05-06T19:44:27.822Z,99.90
2019-05-06T19:47:02.359Z,99.90
2019-05-06T19:49:34.793Z,99.90
2019-05-06T19:52:07.034Z,99.90
2019-05-06T19:54:39.980Z,99.90
2019-05-06T19:57:15.731Z,99.90
2019-05-06T19:59:48.402Z,99.90
2019-05-06T20:02:23.399Z,99.90
2019-05-06T20:04:57.290Z,99.90
2019-05-06T20:07:47.912Z,99.90
2019-05-06T20:10:39.023Z,99.90
2019-05-06T20:13:13.537Z,99.90
2019-05-06T20:15:46.946Z,99.90
2019-05-06T20:18:20.323Z,99.90
2019-05-06T20:20:53.356Z,99.90
2019-05-06T20:23:25.597Z,99.90
2019-05-06T20:25:58.687Z,99.90
2019-05-06T20:28:32.088Z,99.90
2019-05-06T20:31:04.236Z,99.90
2019-05-06T20:33:37.037Z,99.90
2019-05-06T20:36:09.472Z,99.90
2019-05-06T20:38:42.434Z,99.90
2019-05-06T20:41:14.793Z,99.90
2019-05-06T20:43:47.314Z,99.90
2019-05-06T20:46:21.850Z,99.90
2019-05-06T20:49:13.270Z,99.90
2019-05-06T20:51:46.118Z,99.90
2019-05-06T20:54:18.572Z,99.90
2019-05-06T20:56:52.938Z,99.90
2019-05-06T20:59:26.070Z,99.90
2019-05-06T21:01:58.850Z,99.90
2019-05-06T21:04:32.433Z,99.90
2019-05-06T21:07:05.682Z,99.90
2019-05-06T21:09:39.969Z,99.90
2019-05-06T21:12:13.296Z,99.90
2019-05-06T21:14:45.802Z,99.90
2019-05-06T21:17:18.785Z,99.90
2019-05-06T21:19:51.964Z,99.90
2019-05-06T21:22:24.904Z,99.90
2019-05-06T21:24:57.386Z,99.90
2019-05-06T21:27:29.609Z,99.90
2019-05-06T21:30:04.336Z,99.80
2019-05-06T21:32:37.715Z,99.90
2019-05-06T21:35:12.436Z,99.90
2019-05-06T21:37:46.211Z,99.90
2019-05-06T21:40:18.835Z,99.60
2019-05-06T21:42:52.192Z,99.60
2019-05-06T21:45:24.430Z,99.90
2019-05-06T21:47:59.177Z,99.90
2019-05-06T21:50:33.062Z,99.90
2019-05-06T21:53:06.232Z,99.90
2019-05-06T21:55:38.771Z,99.70
2019-05-06T21:58:12.272Z,99.90
2019-05-06T22:00:48.537Z,99.90
2019-05-06T22:03:22.990Z,99.90
2019-05-06T22:05:55.398Z,99.50
2019-05-06T22:08:28.419Z,99.90
2019-05-06T22:11:02.989Z,99.90
2019-05-06T22:13:37.057Z,99.90
2019-05-06T22:16:12.245Z,99.70
2019-05-06T22:18:45.545Z,99.90
2019-05-06T22:21:19.809Z,99.90
2019-05-06T22:24:04.193Z,99.90
2019-05-06T22:26:34.367Z,99.90
2019-05-06T22:29:14.274Z,99.90
2019-05-06T22:31:47.518Z,99.90
2019-05-06T22:34:22.129Z,99.90
2019-05-06T22:36:56.356Z,99.90
2019-05-06T22:39:31.719Z,99.80
2019-05-06T22:42:05.035Z,99.90
2019-05-06T22:44:38.925Z,99.80
2019-05-06T22:47:12.151Z,99.80
2019-05-06T22:49:46.415Z,99.90
2019-05-06T22:52:19.012Z,99.90
2019-05-06T22:54:52.834Z,99.90
2019-05-06T22:57:44.947Z,99.90
2019-05-06T23:00:23.108Z,99.90
2019-05-06T23:03:02.126Z,99.90
2019-05-06T23:05:37.157Z,99.90
2019-05-06T23:08:12.159Z,99.80
2019-05-06T23:10:44.746Z,99.90
2019-05-06T23:13:18.291Z,99.90
2019-05-06T23:15:52.393Z,99.90
2019-05-06T23:18:25.746Z,99.90
2019-05-06T23:21:02.371Z,99.90
2019-05-06T23:23:34.780Z,99.90
2019-05-06T23:26:22.544Z,99.90
2019-05-06T23:28:54.056Z,99.90
2019-05-06T23:31:29.128Z,99.40
2019-05-06T23:34:02.322Z,99.70
2019-05-06T23:37:02.671Z,99.20
2019-05-06T23:40:12.692Z,99.10
2019-05-06T23:43:22.176Z,99.20
2019-05-06T23:46:32.391Z,98.70
2019-05-06T23:49:42.286Z,99.40
2019-05-06T23:52:52.034Z,98.70
2019-05-06T23:56:02.641Z,98.90
2019-05-06T23:58:34.653Z,98.40
